PWSweather.com
Personal Weather Stations
Station Observations

ChardChardGB

Lat: 50.877408, Lon: -2.94964741

Elevation: 341

Station Type: WS3083

http://www.merriott-astro.co.uk/weather/index.htm

High Low Average
Temperature 46.4°F8.0°C 39.0°F3.9°C 44.3°F6.8°C
Dew Point 40.7°F4.8°C 35.2°F1.8°C 39.3°F4.1°C
Winds 19.8 mph 31.9 kmh Calm Calm 11.0 mph SE17.7 kmh SE
Wind Gusts 31.1 mph50.1 kmh -- 15.0 mph24.1 kmh
Humidity 87% 74% 82%
Pressure 30.07 in1018.3 mb 29.82 in1009.8 mb -
Precipitation 0.13 in3.3 mm - -
Hour Temp Dew Point Humidity Winds Wind Gusts Pressure Precip Precip Rate Daily Precip Total
12:00 AM 46.4°F8.0°C 38.6°F3.7°C 74% 14.7 mph SSW23.7 kmh SSW 20.6 mph33.2 kmh 30.01 in1016.3 mb 0.01 in0.3 mm 0.00 in0.0 mm 0.01 in0.3 mm
12:10 AM 46.4°F8.0°C 38.6°F3.7°C 74% 14.4 mph SSW23.2 kmh SSW 22.1 mph35.6 kmh 30.00 in1015.9 mb 0.02 in0.5 mm 0.06 in1.5 mm 0.01 in0.3 mm
12:20 AM 46.2°F7.9°C 38.4°F3.6°C 74% 12.9 mph SSW20.8 kmh SSW 22.8 mph36.7 kmh 30.00 in1015.9 mb 0.02 in0.5 mm 0.00 in0.0 mm 0.01 in0.3 mm
12:30 AM 46.2°F7.9°C 38.4°F3.6°C 74% 18.3 mph SW29.5 kmh SW 23.5 mph37.8 kmh 29.98 in1015.2 mb 0.04 in1.0 mm 0.12 in3.0 mm 0.02 in0.5 mm
12:40 AM 46.0°F7.8°C 38.6°F3.7°C 75% 15.6 mph SW25.1 kmh SW 22.1 mph35.6 kmh 29.97 in1014.9 mb 0.05 in1.3 mm 0.06 in1.5 mm 0.04 in1.0 mm
12:50 AM 46.0°F7.8°C 38.6°F3.7°C 75% 17.3 mph SW27.8 kmh SW 21.3 mph34.3 kmh 29.96 in1014.6 mb 0.05 in1.3 mm 0.00 in0.0 mm 0.05 in1.3 mm
01:00 AM 46.2°F7.9°C 38.7°F3.7°C 75% 19.6 mph S31.5 kmh S 28.2 mph45.4 kmh 29.96 in1014.6 mb 0.06 in1.5 mm 0.01 in0.3 mm 0.06 in1.5 mm
01:10 AM 46.0°F7.8°C 38.6°F3.7°C 75% 19.8 mph SW31.9 kmh SW 28.2 mph45.4 kmh 29.96 in1014.6 mb 0.05 in1.3 mm 0.00 in0.0 mm 0.06 in1.5 mm
01:20 AM 45.9°F7.7°C 38.4°F3.6°C 75% 17.1 mph S27.5 kmh S 21.3 mph34.3 kmh 29.96 in1014.6 mb 0.05 in1.3 mm 0.00 in0.0 mm 0.06 in1.5 mm
01:30 AM 45.9°F7.7°C 38.7°F3.7°C 76% 14.9 mph SW24.0 kmh SW 22.1 mph35.6 kmh 29.94 in1013.9 mb 0.05 in1.3 mm 0.00 in0.0 mm 0.07 in1.8 mm
01:40 AM 45.9°F7.7°C 38.7°F3.7°C 76% 16.6 mph SW26.7 kmh SW 25.1 mph40.4 kmh 29.94 in1013.9 mb 0.04 in1.0 mm 0.00 in0.0 mm 0.07 in1.8 mm
01:50 AM 45.7°F7.6°C 38.6°F3.7°C 76% 13.2 mph SW21.2 kmh SW 18.3 mph29.5 kmh 29.94 in1013.9 mb 0.02 in0.5 mm 0.00 in0.0 mm 0.07 in1.8 mm
02:00 AM 45.9°F7.7°C 38.7°F3.7°C 76% 17.6 mph SW28.3 kmh SW 31.1 mph50.1 kmh 29.93 in1013.5 mb 0.02 in0.5 mm 0.00 in0.0 mm 0.08 in2.0 mm
02:10 AM 45.7°F7.6°C 38.6°F3.7°C 76% 17.8 mph SW28.6 kmh SW 25.1 mph40.4 kmh 29.92 in1013.2 mb 0.05 in1.3 mm 0.18 in4.6 mm 0.11 in2.8 mm
02:20 AM 45.3°F7.4°C 40.2°F4.6°C 82% 15.2 mph SSW24.5 kmh SSW 24.4 mph39.3 kmh 29.92 in1013.2 mb 0.07 in1.8 mm 0.12 in3.0 mm 0.13 in3.3 mm
02:30 AM 45.3°F7.4°C 40.2°F4.6°C 82% 13.2 mph S21.2 kmh S 19.0 mph30.6 kmh 29.91 in1012.9 mb 0.06 in1.5 mm 0.00 in0.0 mm 0.13 in3.3 mm
02:40 AM 45.3°F7.4°C 40.2°F4.6°C 82% 13.2 mph S21.2 kmh S 19.0 mph30.6 kmh 29.91 in1012.9 mb 0.06 in1.5 mm 0.00 in0.0 mm 0.13 in3.3 mm
02:50 AM 45.3°F7.4°C 40.2°F4.6°C 82% 13.2 mph S21.2 kmh S 19.0 mph30.6 kmh 29.91 in1012.9 mb 0.06 in1.5 mm 0.00 in0.0 mm 0.13 in3.3 mm
03:00 AM 45.3°F7.4°C 40.2°F4.6°C 82% 13.2 mph S21.2 kmh S 19.0 mph30.6 kmh 29.90 in1012.5 mb 0.05 in1.3 mm 0.00 in0.0 mm 0.13 in3.3 mm
03:10 AM 45.3°F7.4°C 40.2°F4.6°C 82% 13.2 mph S21.2 kmh S 19.0 mph30.6 kmh 29.90 in1012.5 mb 0.02 in0.5 mm 0.00 in0.0 mm 0.13 in3.3 mm
03:20 AM 45.3°F7.4°C 40.2°F4.6°C 82% 13.2 mph S21.2 kmh S 19.0 mph30.6 kmh 29.89 in1012.2 mb 0.00 in0.0 mm 0.00 in0.0 mm 0.13 in3.3 mm
03:30 AM 45.3°F7.4°C 40.2°F4.6°C 82% 13.2 mph S21.2 kmh S 19.0 mph30.6 kmh 29.88 in1011.9 mb 0.00 in0.0 mm 0.00 in0.0 mm 0.13 in3.3 mm
03:40 AM 45.3°F7.4°C 40.2°F4.6°C 82% 13.2 mph S21.2 kmh S 19.0 mph30.6 kmh 29.87 in1011.5 mb 0.00 in0.0 mm 0.00 in0.0 mm 0.13 in3.3 mm
03:50 AM 45.3°F7.4°C 40.2°F4.6°C 82% 13.2 mph S21.2 kmh S 19.0 mph30.6 kmh 29.87 in1011.5 mb 0.00 in0.0 mm 0.00 in0.0 mm 0.13 in3.3 mm
04:00 AM 45.3°F7.4°C 40.2°F4.6°C 82% 13.2 mph S21.2 kmh S 19.0 mph30.6 kmh 29.87 in1011.5 mb 0.00 in0.0 mm 0.00 in0.0 mm 0.13 in3.3 mm
04:10 AM 45.3°F7.4°C 40.2°F4.6°C 82% 13.2 mph S21.2 kmh S 19.0 mph30.6 kmh 29.86 in1011.2 mb 0.00 in0.0 mm 0.00 in0.0 mm 0.13 in3.3 mm
04:20 AM 45.3°F7.4°C 40.2°F4.6°C 82% 13.2 mph S21.2 kmh S 19.0 mph30.6 kmh 29.86 in1011.2 mb 0.00 in0.0 mm 0.00 in0.0 mm 0.13 in3.3 mm
04:30 AM 45.3°F7.4°C 40.2°F4.6°C 82% 13.2 mph S21.2 kmh S 19.0 mph30.6 kmh 29.84 in1010.5 mb 0.00 in0.0 mm 0.00 in0.0 mm 0.13 in3.3 mm
04:40 AM 45.3°F7.4°C 40.2°F4.6°C 82% 13.2 mph S21.2 kmh S 19.0 mph30.6 kmh 29.84 in1010.5 mb 0.00 in0.0 mm 0.00 in0.0 mm 0.13 in3.3 mm
04:50 AM 45.3°F7.4°C 40.2°F4.6°C 82% 13.2 mph S21.2 kmh S 19.0 mph30.6 kmh 29.83 in1010.2 mb 0.00 in0.0 mm 0.00 in0.0 mm 0.13 in3.3 mm
05:00 AM 45.3°F7.4°C 40.2°F4.6°C 82% 13.2 mph S21.2 kmh S 19.0 mph30.6 kmh 29.84 in1010.5 mb 0.00 in0.0 mm 0.00 in0.0 mm 0.13 in3.3 mm
05:10 AM 45.3°F7.4°C 40.2°F4.6°C 82% 13.2 mph S21.2 kmh S 19.0 mph30.6 kmh 29.84 in1010.5 mb 0.00 in0.0 mm 0.00 in0.0 mm 0.13 in3.3 mm
05:20 AM 45.3°F7.4°C 40.2°F4.6°C 82% 13.2 mph S21.2 kmh S 19.0 mph30.6 kmh 29.84 in1010.5 mb 0.00 in0.0 mm 0.00 in0.0 mm 0.13 in3.3 mm
05:30 AM 45.3°F7.4°C 40.2°F4.6°C 82% 13.2 mph S21.2 kmh S 19.0 mph30.6 kmh 29.84 in1010.5 mb 0.00 in0.0 mm 0.00 in0.0 mm 0.13 in3.3 mm
05:40 AM 45.3°F7.4°C 40.2°F4.6°C 82% 13.2 mph S21.2 kmh S 19.0 mph30.6 kmh 29.83 in1010.2 mb 0.00 in0.0 mm 0.00 in0.0 mm 0.13 in3.3 mm
05:50 AM 45.3°F7.4°C 40.2°F4.6°C 82% 13.2 mph S21.2 kmh S 19.0 mph30.6 kmh 29.83 in1010.2 mb 0.00 in0.0 mm 0.00 in0.0 mm 0.13 in3.3 mm
06:00 AM 45.3°F7.4°C 40.2°F4.6°C 82% 13.2 mph S21.2 kmh S 19.0 mph30.6 kmh 29.82 in1009.8 mb 0.00 in0.0 mm 0.00 in0.0 mm 0.13 in3.3 mm
06:10 AM 45.3°F7.4°C 40.2°F4.6°C 82% 13.2 mph S21.2 kmh S 19.0 mph30.6 kmh 29.84 in1010.5 mb 0.00 in0.0 mm 0.00 in0.0 mm 0.13 in3.3 mm
06:20 AM 45.3°F7.4°C 40.2°F4.6°C 82% 13.2 mph S21.2 kmh S 19.0 mph30.6 kmh 29.86 in1011.2 mb 0.00 in0.0 mm 0.00 in0.0 mm 0.13 in3.3 mm
06:30 AM 45.3°F7.4°C 40.2°F4.6°C 82% 13.2 mph S21.2 kmh S 19.0 mph30.6 kmh 29.83 in1010.2 mb 0.00 in0.0 mm 0.00 in0.0 mm 0.13 in3.3 mm
06:40 AM 45.3°F7.4°C 40.2°F4.6°C 82% 13.2 mph S21.2 kmh S 19.0 mph30.6 kmh 29.84 in1010.5 mb 0.00 in0.0 mm 0.00 in0.0 mm 0.13 in3.3 mm
06:50 AM 45.3°F7.4°C 40.2°F4.6°C 82% 13.2 mph S21.2 kmh S 19.0 mph30.6 kmh 29.83 in1010.2 mb 0.00 in0.0 mm 0.00 in0.0 mm 0.13 in3.3 mm
07:00 AM 45.3°F7.4°C 40.2°F4.6°C 82% 13.2 mph S21.2 kmh S 19.0 mph30.6 kmh 29.82 in1009.8 mb 0.00 in0.0 mm 0.00 in0.0 mm 0.13 in3.3 mm
07:10 AM 45.3°F7.4°C 40.2°F4.6°C 82% 13.2 mph S21.2 kmh S 19.0 mph30.6 kmh 29.82 in1009.8 mb 0.00 in0.0 mm 0.00 in0.0 mm 0.13 in3.3 mm
07:20 AM 45.3°F7.4°C 40.2°F4.6°C 82% 13.2 mph S21.2 kmh S 19.0 mph30.6 kmh 29.82 in1009.8 mb 0.00 in0.0 mm 0.00 in0.0 mm 0.13 in3.3 mm
07:30 AM 45.3°F7.4°C 40.2°F4.6°C 82% 13.2 mph S21.2 kmh S 19.0 mph30.6 kmh 29.83 in1010.2 mb 0.00 in0.0 mm 0.00 in0.0 mm 0.13 in3.3 mm
07:40 AM 45.3°F7.4°C 40.2°F4.6°C 82% 13.2 mph S21.2 kmh S 19.0 mph30.6 kmh 29.83 in1010.2 mb 0.00 in0.0 mm 0.00 in0.0 mm 0.13 in3.3 mm
07:50 AM 45.3°F7.4°C 40.2°F4.6°C 82% 13.2 mph S21.2 kmh S 19.0 mph30.6 kmh 29.83 in1010.2 mb 0.00 in0.0 mm 0.00 in0.0 mm 0.13 in3.3 mm
08:00 AM 45.3°F7.4°C 40.2°F4.6°C 82% 13.2 mph S21.2 kmh S 19.0 mph30.6 kmh 29.83 in1010.2 mb 0.00 in0.0 mm 0.00 in0.0 mm 0.13 in3.3 mm
08:10 AM 45.3°F7.4°C 40.2°F4.6°C 82% 13.2 mph S21.2 kmh S 19.0 mph30.6 kmh 29.83 in1010.2 mb 0.00 in0.0 mm 0.00 in0.0 mm 0.13 in3.3 mm
08:20 AM 45.3°F7.4°C 40.2°F4.6°C 82% 13.2 mph S21.2 kmh S 19.0 mph30.6 kmh 29.84 in1010.5 mb 0.00 in0.0 mm 0.00 in0.0 mm 0.13 in3.3 mm
08:30 AM 45.3°F7.4°C 40.2°F4.6°C 82% 13.2 mph S21.2 kmh S 19.0 mph30.6 kmh 29.83 in1010.2 mb 0.00 in0.0 mm 0.00 in0.0 mm 0.13 in3.3 mm
08:40 AM 45.3°F7.4°C 40.2°F4.6°C 82% 13.2 mph S21.2 kmh S 19.0 mph30.6 kmh 29.84 in1010.5 mb 0.00 in0.0 mm 0.00 in0.0 mm 0.13 in3.3 mm
08:50 AM 45.3°F7.4°C 40.2°F4.6°C 82% 13.2 mph S21.2 kmh S 19.0 mph30.6 kmh 29.83 in1010.2 mb 0.00 in0.0 mm 0.00 in0.0 mm 0.13 in3.3 mm
09:00 AM 45.3°F7.4°C 40.2°F4.6°C 82% 13.2 mph S21.2 kmh S 19.0 mph30.6 kmh 29.84 in1010.5 mb 0.00 in0.0 mm 0.00 in0.0 mm 0.13 in3.3 mm
09:10 AM 45.3°F7.4°C 40.2°F4.6°C 82% 13.2 mph S21.2 kmh S 19.0 mph30.6 kmh 29.84 in1010.5 mb 0.00 in0.0 mm 0.00 in0.0 mm 0.13 in3.3 mm
09:20 AM 45.3°F7.4°C 40.2°F4.6°C 82% 13.2 mph S21.2 kmh S 19.0 mph30.6 kmh 29.86 in1011.2 mb 0.00 in0.0 mm 0.00 in0.0 mm 0.13 in3.3 mm
09:30 AM 45.3°F7.4°C 40.2°F4.6°C 82% 13.2 mph S21.2 kmh S 19.0 mph30.6 kmh 29.85 in1010.8 mb 0.00 in0.0 mm 0.00 in0.0 mm 0.13 in3.3 mm
09:40 AM 45.3°F7.4°C 40.2°F4.6°C 82% 13.2 mph S21.2 kmh S 19.0 mph30.6 kmh 29.85 in1010.8 mb 0.00 in0.0 mm 0.00 in0.0 mm 0.13 in3.3 mm
09:50 AM 45.3°F7.4°C 40.2°F4.6°C 82% 13.2 mph S21.2 kmh S 19.0 mph30.6 kmh 29.85 in1010.8 mb 0.00 in0.0 mm 0.00 in0.0 mm 0.13 in3.3 mm
10:00 AM 45.3°F7.4°C 40.2°F4.6°C 82% 13.2 mph S21.2 kmh S 19.0 mph30.6 kmh 29.86 in1011.2 mb 0.00 in0.0 mm 0.00 in0.0 mm 0.13 in3.3 mm
10:10 AM 45.3°F7.4°C 40.2°F4.6°C 82% 13.2 mph S21.2 kmh S 19.0 mph30.6 kmh 29.86 in1011.2 mb 0.00 in0.0 mm 0.00 in0.0 mm 0.13 in3.3 mm
10:20 AM 45.3°F7.4°C 40.2°F4.6°C 82% 13.2 mph S21.2 kmh S 19.0 mph30.6 kmh 29.86 in1011.2 mb 0.00 in0.0 mm 0.00 in0.0 mm 0.13 in3.3 mm
10:30 AM 45.3°F7.4°C 40.2°F4.6°C 82% 13.2 mph S21.2 kmh S 19.0 mph30.6 kmh 29.86 in1011.2 mb 0.00 in0.0 mm 0.00 in0.0 mm 0.13 in3.3 mm
10:40 AM 45.3°F7.4°C 40.2°F4.6°C 82% 13.2 mph S21.2 kmh S 19.0 mph30.6 kmh 29.86 in1011.2 mb 0.00 in0.0 mm 0.00 in0.0 mm 0.13 in3.3 mm
10:50 AM 45.3°F7.4°C 40.2°F4.6°C 82% 13.2 mph S21.2 kmh S 19.0 mph30.6 kmh 29.87 in1011.5 mb 0.00 in0.0 mm 0.00 in0.0 mm 0.13 in3.3 mm
11:00 AM 45.3°F7.4°C 40.2°F4.6°C 82% 13.2 mph S21.2 kmh S 19.0 mph30.6 kmh 29.88 in1011.9 mb 0.00 in0.0 mm 0.00 in0.0 mm 0.13 in3.3 mm
11:10 AM 45.3°F7.4°C 40.2°F4.6°C 82% 13.2 mph S21.2 kmh S 19.0 mph30.6 kmh 29.88 in1011.9 mb 0.00 in0.0 mm 0.00 in0.0 mm 0.13 in3.3 mm
11:20 AM 45.3°F7.4°C 40.2°F4.6°C 82% 13.2 mph S21.2 kmh S 19.0 mph30.6 kmh 29.88 in1011.9 mb 0.00 in0.0 mm 0.00 in0.0 mm 0.13 in3.3 mm
11:30 AM 45.3°F7.4°C 40.2°F4.6°C 82% 13.2 mph S21.2 kmh S 19.0 mph30.6 kmh 29.88 in1011.9 mb 0.00 in0.0 mm 0.00 in0.0 mm 0.13 in3.3 mm
11:40 AM 45.3°F7.4°C 40.2°F4.6°C 82% 13.2 mph S21.2 kmh S 19.0 mph30.6 kmh 29.89 in1012.2 mb 0.00 in0.0 mm 0.00 in0.0 mm 0.13 in3.3 mm
11:50 AM 45.3°F7.4°C 40.2°F4.6°C 82% 13.2 mph S21.2 kmh S 19.0 mph30.6 kmh 29.90 in1012.5 mb 0.00 in0.0 mm 0.00 in0.0 mm 0.13 in3.3 mm
12:00 PM 45.3°F7.4°C 40.2°F4.6°C 82% 13.2 mph S21.2 kmh S 19.0 mph30.6 kmh 29.89 in1012.2 mb 0.00 in0.0 mm 0.00 in0.0 mm 0.13 in3.3 mm
12:10 PM 45.3°F7.4°C 40.2°F4.6°C 82% 13.2 mph S21.2 kmh S 19.0 mph30.6 kmh 29.90 in1012.5 mb 0.00 in0.0 mm 0.00 in0.0 mm 0.13 in3.3 mm
12:20 PM 45.3°F7.4°C 40.2°F4.6°C 82% 13.2 mph S21.2 kmh S 19.0 mph30.6 kmh 29.90 in1012.5 mb 0.00 in0.0 mm 0.00 in0.0 mm 0.13 in3.3 mm
12:30 PM 45.3°F7.4°C 40.2°F4.6°C 82% 13.2 mph S21.2 kmh S 19.0 mph30.6 kmh 29.90 in1012.5 mb 0.00 in0.0 mm 0.00 in0.0 mm 0.13 in3.3 mm
12:40 PM 45.3°F7.4°C 40.2°F4.6°C 82% 13.2 mph S21.2 kmh S 19.0 mph30.6 kmh 29.90 in1012.5 mb 0.00 in0.0 mm 0.00 in0.0 mm 0.13 in3.3 mm
12:50 PM 45.3°F7.4°C 40.2°F4.6°C 82% 13.2 mph S21.2 kmh S 19.0 mph30.6 kmh 29.91 in1012.9 mb 0.00 in0.0 mm 0.00 in0.0 mm 0.13 in3.3 mm
01:00 PM 45.3°F7.4°C 40.2°F4.6°C 82% 13.2 mph S21.2 kmh S 19.0 mph30.6 kmh 29.90 in1012.5 mb 0.00 in0.0 mm 0.00 in0.0 mm 0.13 in3.3 mm
01:10 PM 45.3°F7.4°C 40.2°F4.6°C 82% 13.2 mph S21.2 kmh S 19.0 mph30.6 kmh 29.89 in1012.2 mb 0.00 in0.0 mm 0.00 in0.0 mm 0.13 in3.3 mm
01:20 PM 45.3°F7.4°C 40.2°F4.6°C 82% 13.2 mph S21.2 kmh S 19.0 mph30.6 kmh 29.90 in1012.5 mb 0.00 in0.0 mm 0.00 in0.0 mm 0.13 in3.3 mm
01:30 PM 45.3°F7.4°C 40.2°F4.6°C 82% 13.2 mph S21.2 kmh S 19.0 mph30.6 kmh 29.89 in1012.2 mb 0.00 in0.0 mm 0.00 in0.0 mm 0.13 in3.3 mm
01:40 PM 45.3°F7.4°C 40.2°F4.6°C 82% 13.2 mph S21.2 kmh S 19.0 mph30.6 kmh 29.89 in1012.2 mb 0.00 in0.0 mm 0.00 in0.0 mm 0.13 in3.3 mm
01:50 PM 45.3°F7.4°C 40.2°F4.6°C 82% 13.2 mph S21.2 kmh S 19.0 mph30.6 kmh 29.89 in1012.2 mb 0.00 in0.0 mm 0.00 in0.0 mm 0.13 in3.3 mm
02:00 PM 45.3°F7.4°C 40.2°F4.6°C 82% 13.2 mph S21.2 kmh S 19.0 mph30.6 kmh 29.90 in1012.5 mb 0.00 in0.0 mm 0.00 in0.0 mm 0.13 in3.3 mm
02:10 PM 45.3°F7.4°C 40.2°F4.6°C 82% 13.2 mph S21.2 kmh S 19.0 mph30.6 kmh 29.90 in1012.5 mb 0.00 in0.0 mm 0.00 in0.0 mm 0.13 in3.3 mm
02:20 PM 45.3°F7.4°C 40.2°F4.6°C 82% 13.2 mph S21.2 kmh S 19.0 mph30.6 kmh 29.91 in1012.9 mb 0.00 in0.0 mm 0.00 in0.0 mm 0.13 in3.3 mm
02:30 PM 45.3°F7.4°C 40.2°F4.6°C 82% 13.2 mph S21.2 kmh S 19.0 mph30.6 kmh 29.90 in1012.5 mb 0.00 in0.0 mm 0.00 in0.0 mm 0.13 in3.3 mm
02:40 PM 45.3°F7.4°C 40.2°F4.6°C 82% 13.2 mph S21.2 kmh S 19.0 mph30.6 kmh 29.92 in1013.2 mb 0.00 in0.0 mm 0.00 in0.0 mm 0.13 in3.3 mm
02:50 PM 45.3°F7.4°C 40.2°F4.6°C 82% 13.2 mph S21.2 kmh S 19.0 mph30.6 kmh 29.92 in1013.2 mb 0.00 in0.0 mm 0.00 in0.0 mm 0.13 in3.3 mm
03:00 PM 45.3°F7.4°C 40.2°F4.6°C 82% 13.2 mph S21.2 kmh S 19.0 mph30.6 kmh 29.92 in1013.2 mb 0.00 in0.0 mm 0.00 in0.0 mm 0.13 in3.3 mm
03:10 PM 45.3°F7.4°C 40.2°F4.6°C 82% 13.2 mph S21.2 kmh S 19.0 mph30.6 kmh 29.93 in1013.5 mb 0.00 in0.0 mm 0.00 in0.0 mm 0.13 in3.3 mm
03:20 PM 45.3°F7.4°C 40.2°F4.6°C 82% 13.2 mph S21.2 kmh S 19.0 mph30.6 kmh 29.93 in1013.5 mb 0.00 in0.0 mm 0.00 in0.0 mm 0.13 in3.3 mm
03:30 PM 45.3°F7.4°C 40.2°F4.6°C 82% 13.2 mph S21.2 kmh S 19.0 mph30.6 kmh 29.92 in1013.2 mb 0.00 in0.0 mm 0.00 in0.0 mm 0.13 in3.3 mm
03:40 PM 45.3°F7.4°C 40.2°F4.6°C 82% 13.2 mph S21.2 kmh S 19.0 mph30.6 kmh 29.93 in1013.5 mb 0.00 in0.0 mm 0.00 in0.0 mm 0.13 in3.3 mm
03:50 PM 45.3°F7.4°C 40.2°F4.6°C 82% 13.2 mph S21.2 kmh S 19.0 mph30.6 kmh 29.94 in1013.9 mb 0.00 in0.0 mm 0.00 in0.0 mm 0.13 in3.3 mm
04:00 PM 45.3°F7.4°C 40.2°F4.6°C 82% 13.2 mph S21.2 kmh S 19.0 mph30.6 kmh 29.94 in1013.9 mb 0.00 in0.0 mm 0.00 in0.0 mm 0.13 in3.3 mm
04:10 PM 45.3°F7.4°C 40.2°F4.6°C 82% 13.2 mph S21.2 kmh S 19.0 mph30.6 kmh 29.94 in1013.9 mb 0.00 in0.0 mm 0.00 in0.0 mm 0.13 in3.3 mm
04:20 PM 45.3°F7.4°C 40.2°F4.6°C 82% 13.2 mph S21.2 kmh S 19.0 mph30.6 kmh 29.95 in1014.2 mb 0.00 in0.0 mm 0.00 in0.0 mm 0.13 in3.3 mm
04:30 PM 45.3°F7.4°C 40.2°F4.6°C 82% 13.2 mph S21.2 kmh S 19.0 mph30.6 kmh 29.95 in1014.2 mb 0.00 in0.0 mm 0.00 in0.0 mm 0.13 in3.3 mm
04:40 PM 45.3°F7.4°C 40.2°F4.6°C 82% 13.2 mph S21.2 kmh S 19.0 mph30.6 kmh 29.95 in1014.2 mb 0.00 in0.0 mm 0.00 in0.0 mm 0.13 in3.3 mm
04:50 PM 45.3°F7.4°C 40.2°F4.6°C 82% 13.2 mph S21.2 kmh S 19.0 mph30.6 kmh 29.96 in1014.6 mb 0.00 in0.0 mm 0.00 in0.0 mm 0.13 in3.3 mm
05:00 PM 45.3°F7.4°C 40.2°F4.6°C 82% 13.2 mph S21.2 kmh S 19.0 mph30.6 kmh 29.96 in1014.6 mb 0.00 in0.0 mm 0.00 in0.0 mm 0.13 in3.3 mm
05:10 PM 45.3°F7.4°C 40.2°F4.6°C 82% 13.2 mph S21.2 kmh S 19.0 mph30.6 kmh 29.96 in1014.6 mb 0.00 in0.0 mm 0.00 in0.0 mm 0.13 in3.3 mm
05:20 PM 45.3°F7.4°C 40.2°F4.6°C 82% 13.2 mph S21.2 kmh S 19.0 mph30.6 kmh 29.97 in1014.9 mb 0.00 in0.0 mm 0.00 in0.0 mm 0.13 in3.3 mm
05:30 PM 45.3°F7.4°C 40.2°F4.6°C 82% 13.2 mph S21.2 kmh S 19.0 mph30.6 kmh 29.97 in1014.9 mb 0.00 in0.0 mm 0.00 in0.0 mm 0.13 in3.3 mm
05:40 PM 45.3°F7.4°C 40.2°F4.6°C 82% 13.2 mph S21.2 kmh S 19.0 mph30.6 kmh 29.98 in1015.2 mb 0.00 in0.0 mm 0.00 in0.0 mm 0.13 in3.3 mm
05:50 PM 45.3°F7.4°C 40.2°F4.6°C 82% 13.2 mph S21.2 kmh S 19.0 mph30.6 kmh 29.99 in1015.6 mb 0.00 in0.0 mm 0.00 in0.0 mm 0.13 in3.3 mm
06:00 PM 45.3°F7.4°C 40.2°F4.6°C 82% 13.2 mph S21.2 kmh S 19.0 mph30.6 kmh 30.00 in1015.9 mb 0.00 in0.0 mm 0.00 in0.0 mm 0.13 in3.3 mm
06:10 PM 45.3°F7.4°C 40.2°F4.6°C 82% 13.2 mph S21.2 kmh S 19.0 mph30.6 kmh 29.99 in1015.6 mb 0.00 in0.0 mm 0.00 in0.0 mm 0.13 in3.3 mm
06:20 PM 45.0°F7.2°C 40.7°F4.8°C 85% Calm Calm -- 30.00 in1015.9 mb 0.00 in0.0 mm 0.00 in0.0 mm 0.13 in3.3 mm
06:30 PM 44.1°F6.7°C 39.8°F4.3°C 85% Calm Calm -- 30.00 in1015.9 mb 0.00 in0.0 mm 0.00 in0.0 mm 0.13 in3.3 mm
06:40 PM 43.5°F6.4°C 39.3°F4.1°C 85% Calm Calm -- 30.01 in1016.3 mb 0.00 in0.0 mm 0.00 in0.0 mm 0.13 in3.3 mm
06:50 PM 43.2°F6.2°C 39.0°F3.9°C 85% 2.3 mph S3.7 kmh S 3.8 mph6.1 kmh 30.01 in1016.3 mb 0.00 in0.0 mm 0.00 in0.0 mm 0.13 in3.3 mm
07:00 PM 43.2°F6.2°C 39.0°F3.9°C 85% 3.1 mph S5.0 kmh S 3.1 mph5.0 kmh 30.01 in1016.3 mb 0.00 in0.0 mm 0.00 in0.0 mm 0.13 in3.3 mm
07:10 PM 43.2°F6.2°C 39.0°F3.9°C 85% 3.1 mph S5.0 kmh S 3.1 mph5.0 kmh 30.02 in1016.6 mb 0.00 in0.0 mm 0.00 in0.0 mm 0.13 in3.3 mm
07:20 PM 43.2°F6.2°C 39.0°F3.9°C 85% 3.1 mph S5.0 kmh S 3.1 mph5.0 kmh 30.02 in1016.6 mb 0.00 in0.0 mm 0.00 in0.0 mm 0.13 in3.3 mm
07:30 PM 43.2°F6.2°C 39.0°F3.9°C 85% 3.1 mph S5.0 kmh S 3.1 mph5.0 kmh 30.02 in1016.6 mb 0.00 in0.0 mm 0.00 in0.0 mm 0.13 in3.3 mm
07:40 PM 43.2°F6.2°C 39.0°F3.9°C 85% 3.1 mph S5.0 kmh S 3.1 mph5.0 kmh 30.03 in1016.9 mb 0.00 in0.0 mm 0.00 in0.0 mm 0.13 in3.3 mm
07:50 PM 41.5°F5.3°C 37.7°F3.2°C 86% Calm Calm -- 30.04 in1017.3 mb 0.00 in0.0 mm 0.00 in0.0 mm 0.13 in3.3 mm
08:00 PM 40.6°F4.8°C 36.8°F2.7°C 86% Calm Calm -- 30.03 in1016.9 mb 0.00 in0.0 mm 0.00 in0.0 mm 0.13 in3.3 mm
08:10 PM 40.5°F4.7°C 36.6°F2.6°C 86% Calm Calm -- 30.04 in1017.3 mb 0.00 in0.0 mm 0.00 in0.0 mm 0.13 in3.3 mm
08:20 PM 40.6°F4.8°C 36.8°F2.7°C 86% Calm Calm -- 30.04 in1017.3 mb 0.00 in0.0 mm 0.00 in0.0 mm 0.13 in3.3 mm
08:30 PM 40.3°F4.6°C 36.4°F2.4°C 86% Calm Calm -- 30.05 in1017.6 mb 0.00 in0.0 mm 0.00 in0.0 mm 0.13 in3.3 mm
08:40 PM 39.6°F4.2°C 35.7°F2.1°C 86% Calm Calm -- 30.05 in1017.6 mb 0.00 in0.0 mm 0.00 in0.0 mm 0.13 in3.3 mm
08:50 PM 39.2°F4.0°C 35.4°F1.9°C 86% Calm Calm -- 30.05 in1017.6 mb 0.00 in0.0 mm 0.00 in0.0 mm 0.13 in3.3 mm
09:00 PM 39.0°F3.9°C 35.2°F1.8°C 86% Calm Calm -- 30.05 in1017.6 mb 0.00 in0.0 mm 0.00 in0.0 mm 0.13 in3.3 mm
09:10 PM 39.2°F4.0°C 35.4°F1.9°C 86% Calm Calm -- 30.06 in1017.9 mb 0.00 in0.0 mm 0.00 in0.0 mm 0.13 in3.3 mm
09:20 PM 39.9°F4.4°C 36.4°F2.4°C 87% Calm Calm -- 30.05 in1017.6 mb 0.00 in0.0 mm 0.00 in0.0 mm 0.13 in3.3 mm
09:30 PM 40.1°F4.5°C 36.5°F2.5°C 87% Calm Calm -- 30.06 in1017.9 mb 0.00 in0.0 mm 0.00 in0.0 mm 0.13 in3.3 mm
09:40 PM 39.7°F4.3°C 36.2°F2.3°C 87% Calm Calm -- 30.05 in1017.6 mb 0.00 in0.0 mm 0.00 in0.0 mm 0.13 in3.3 mm
09:50 PM 39.7°F4.3°C 36.2°F2.3°C 87% Calm Calm -- 30.06 in1017.9 mb 0.00 in0.0 mm 0.00 in0.0 mm 0.13 in3.3 mm
10:00 PM 39.7°F4.3°C 36.2°F2.3°C 87% Calm Calm -- 30.07 in1018.3 mb 0.00 in0.0 mm 0.00 in0.0 mm 0.13 in3.3 mm
10:10 PM 39.7°F4.3°C 36.2°F2.3°C 87% Calm Calm -- 30.06 in1017.9 mb 0.00 in0.0 mm 0.00 in0.0 mm 0.13 in3.3 mm
10:20 PM 39.7°F4.3°C 36.2°F2.3°C 87% Calm Calm -- 30.06 in1017.9 mb 0.00 in0.0 mm 0.00 in0.0 mm 0.13 in3.3 mm
10:30 PM 39.7°F4.3°C 36.2°F2.3°C 87% Calm Calm -- 30.06 in1017.9 mb 0.00 in0.0 mm 0.00 in0.0 mm 0.13 in3.3 mm
10:40 PM 39.7°F4.3°C 36.2°F2.3°C 87% Calm Calm -- 30.06 in1017.9 mb 0.00 in0.0 mm 0.00 in0.0 mm 0.13 in3.3 mm
10:50 PM 39.7°F4.3°C 36.2°F2.3°C 87% Calm Calm -- 30.06 in1017.9 mb 0.00 in0.0 mm 0.00 in0.0 mm 0.13 in3.3 mm
11:00 PM 39.7°F4.3°C 36.2°F2.3°C 87% Calm Calm -- 30.06 in1017.9 mb 0.00 in0.0 mm 0.00 in0.0 mm 0.13 in3.3 mm
11:10 PM 39.7°F4.3°C 36.2°F2.3°C 87% Calm Calm -- 30.06 in1017.9 mb 0.00 in0.0 mm 0.00 in0.0 mm 0.13 in3.3 mm
11:20 PM 39.7°F4.3°C 36.2°F2.3°C 87% Calm Calm -- 30.06 in1017.9 mb 0.00 in0.0 mm 0.00 in0.0 mm 0.13 in3.3 mm
11:30 PM 39.7°F4.3°C 36.2°F2.3°C 87% Calm Calm -- 30.06 in1017.9 mb 0.00 in0.0 mm 0.00 in0.0 mm 0.13 in3.3 mm
11:40 PM 39.7°F4.3°C 36.2°F2.3°C 87% Calm Calm -- 30.06 in1017.9 mb 0.00 in0.0 mm 0.00 in0.0 mm 0.13 in3.3 mm
11:50 PM 39.7°F4.3°C 36.2°F2.3°C 87% Calm Calm -- 30.06 in1017.9 mb 0.00 in0.0 mm 0.00 in0.0 mm 0.13 in3.3 mm